sensor_id;sensor_type;location;lat;lon;timestamp;P1;durP1;ratioP1;P2;durP2;ratioP2
3333;SDS011;1679;50.392;8.008;2022-11-03T00:01:35;9.50;;;7.10;;
3333;SDS011;1679;50.392;8.008;2022-11-03T00:04:05;10.47;;;6.60;;
3333;SDS011;1679;50.392;8.008;2022-11-03T00:06:32;9.80;;;6.57;;
3333;SDS011;1679;50.392;8.008;2022-11-03T00:08:58;10.80;;;6.47;;
3333;SDS011;1679;50.392;8.008;2022-11-03T00:11:25;9.87;;;7.17;;
3333;SDS011;1679;50.392;8.008;2022-11-03T00:13:51;10.30;;;5.90;;
3333;SDS011;1679;50.392;8.008;2022-11-03T00:16:17;8.97;;;5.60;;
3333;SDS011;1679;50.392;8.008;2022-11-03T00:18:42;12.80;;;5.80;;
3333;SDS011;1679;50.392;8.008;2022-11-03T00:21:09;11.43;;;6.03;;
3333;SDS011;1679;50.392;8.008;2022-11-03T00:23:37;10.50;;;5.20;;
3333;SDS011;1679;50.392;8.008;2022-11-03T00:26:11;11.40;;;6.13;;
3333;SDS011;1679;50.392;8.008;2022-11-03T00:28:42;8.73;;;4.90;;
3333;SDS011;1679;50.392;8.008;2022-11-03T00:31:10;11.73;;;6.10;;
3333;SDS011;1679;50.392;8.008;2022-11-03T00:33:40;7.57;;;5.53;;
3333;SDS011;1679;50.392;8.008;2022-11-03T00:36:06;12.70;;;6.60;;
3333;SDS011;1679;50.392;8.008;2022-11-03T00:38:34;11.33;;;4.93;;
3333;SDS011;1679;50.392;8.008;2022-11-03T00:41:01;7.37;;;5.63;;
3333;SDS011;1679;50.392;8.008;2022-11-03T00:43:30;10.63;;;5.33;;
3333;SDS011;1679;50.392;8.008;2022-11-03T00:45:58;9.20;;;5.77;;
3333;SDS011;1679;50.392;8.008;2022-11-03T00:48:24;7.47;;;4.57;;
3333;SDS011;1679;50.392;8.008;2022-11-03T00:53:26;9.10;;;4.40;;
3333;SDS011;1679;50.392;8.008;2022-11-03T00:55:52;7.57;;;4.60;;
3333;SDS011;1679;50.392;8.008;2022-11-03T00:58:19;9.73;;;5.10;;
3333;SDS011;1679;50.392;8.008;2022-11-03T01:00:44;7.27;;;4.53;;
3333;SDS011;1679;50.392;8.008;2022-11-03T01:03:10;9.43;;;4.47;;
3333;SDS011;1679;50.392;8.008;2022-11-03T01:05:40;7.47;;;4.60;;
3333;SDS011;1679;50.392;8.008;2022-11-03T01:08:30;9.60;;;4.47;;
3333;SDS011;1679;50.392;8.008;2022-11-03T01:11:03;9.83;;;4.37;;
3333;SDS011;1679;50.392;8.008;2022-11-03T01:13:53;13.10;;;4.60;;
3333;SDS011;1679;50.392;8.008;2022-11-03T01:16:19;5.77;;;4.27;;
3333;SDS011;1679;50.392;8.008;2022-11-03T01:18:45;8.07;;;4.10;;
3333;SDS011;1679;50.392;8.008;2022-11-03T01:21:11;11.40;;;4.63;;
3333;SDS011;1679;50.392;8.008;2022-11-03T01:23:38;7.13;;;4.17;;
3333;SDS011;1679;50.392;8.008;2022-11-03T01:26:04;7.87;;;3.77;;
3333;SDS011;1679;50.392;8.008;2022-11-03T01:31:52;15.00;;;4.30;;
3333;SDS011;1679;50.392;8.008;2022-11-03T01:34:19;6.43;;;4.43;;
3333;SDS011;1679;50.392;8.008;2022-11-03T01:36:45;8.07;;;4.10;;
3333;SDS011;1679;50.392;8.008;2022-11-03T01:39:11;9.77;;;4.50;;
3333;SDS011;1679;50.392;8.008;2022-11-03T01:41:39;5.50;;;3.80;;
3333;SDS011;1679;50.392;8.008;2022-11-03T01:46:31;9.23;;;4.00;;
3333;SDS011;1679;50.392;8.008;2022-11-03T01:49:19;8.00;;;4.00;;
3333;SDS011;1679;50.392;8.008;2022-11-03T01:51:53;7.37;;;4.50;;
3333;SDS011;1679;50.392;8.008;2022-11-03T01:54:24;15.27;;;4.50;;
3333;SDS011;1679;50.392;8.008;2022-11-03T01:56:53;9.93;;;4.70;;
3333;SDS011;1679;50.392;8.008;2022-11-03T01:59:21;7.80;;;4.40;;
3333;SDS011;1679;50.392;8.008;2022-11-03T02:05:11;10.03;;;4.17;;
3333;SDS011;1679;50.392;8.008;2022-11-03T02:10:46;11.10;;;5.13;;
3333;SDS011;1679;50.392;8.008;2022-11-03T02:13:20;6.40;;;4.20;;
3333;SDS011;1679;50.392;8.008;2022-11-03T02:15:53;9.07;;;4.83;;
3333;SDS011;1679;50.392;8.008;2022-11-03T02:18:22;5.87;;;4.83;;
3333;SDS011;1679;50.392;8.008;2022-11-03T02:20:54;8.33;;;4.57;;
3333;SDS011;1679;50.392;8.008;2022-11-03T02:23:51;9.60;;;4.60;;
3333;SDS011;1679;50.392;8.008;2022-11-03T02:26:26;5.50;;;4.07;;
3333;SDS011;1679;50.392;8.008;2022-11-03T02:28:52;9.00;;;4.80;;
3333;SDS011;1679;50.392;8.008;2022-11-03T02:34:13;10.63;;;4.40;;
3333;SDS011;1679;50.392;8.008;2022-11-03T02:36:56;6.00;;;4.13;;
3333;SDS011;1679;50.392;8.008;2022-11-03T02:39:32;11.50;;;4.20;;
3333;SDS011;1679;50.392;8.008;2022-11-03T02:42:01;5.60;;;3.97;;
3333;SDS011;1679;50.392;8.008;2022-11-03T02:44:28;9.67;;;5.10;;
3333;SDS011;1679;50.392;8.008;2022-11-03T02:47:00;9.73;;;4.80;;
3333;SDS011;1679;50.392;8.008;2022-11-03T02:49:28;9.43;;;4.33;;
3333;SDS011;1679;50.392;8.008;2022-11-03T02:52:00;6.40;;;4.03;;
3333;SDS011;1679;50.392;8.008;2022-11-03T02:54:30;6.73;;;4.27;;
3333;SDS011;1679;50.392;8.008;2022-11-03T02:57:17;8.77;;;4.53;;
3333;SDS011;1679;50.392;8.008;2022-11-03T02:59:53;12.47;;;5.00;;
3333;SDS011;1679;50.392;8.008;2022-11-03T03:02:28;7.93;;;4.77;;
3333;SDS011;1679;50.392;8.008;2022-11-03T03:05:02;5.60;;;4.00;;
3333;SDS011;1679;50.392;8.008;2022-11-03T03:07:33;5.23;;;4.10;;
3333;SDS011;1679;50.392;8.008;2022-11-03T03:10:22;10.53;;;4.70;;
3333;SDS011;1679;50.392;8.008;2022-11-03T03:12:52;7.20;;;4.50;;
3333;SDS011;1679;50.392;8.008;2022-11-03T03:18:17;5.10;;;4.60;;
3333;SDS011;1679;50.392;8.008;2022-11-03T03:23:39;9.90;;;5.00;;
3333;SDS011;1679;50.392;8.008;2022-11-03T03:26:17;8.70;;;4.47;;
3333;SDS011;1679;50.392;8.008;2022-11-03T03:28:52;9.60;;;4.50;;
3333;SDS011;1679;50.392;8.008;2022-11-03T03:31:21;6.07;;;4.50;;
3333;SDS011;1679;50.392;8.008;2022-11-03T03:33:48;6.53;;;4.20;;
3333;SDS011;1679;50.392;8.008;2022-11-03T03:36:16;6.70;;;3.90;;
3333;SDS011;1679;50.392;8.008;2022-11-03T03:38:45;7.03;;;4.40;;
3333;SDS011;1679;50.392;8.008;2022-11-03T03:41:16;5.83;;;4.03;;
3333;SDS011;1679;50.392;8.008;2022-11-03T03:43:47;5.00;;;4.40;;
3333;SDS011;1679;50.392;8.008;2022-11-03T03:46:15;7.00;;;4.20;;
3333;SDS011;1679;50.392;8.008;2022-11-03T03:48:42;9.30;;;4.23;;
3333;SDS011;1679;50.392;8.008;2022-11-03T03:51:07;9.80;;;4.73;;
3333;SDS011;1679;50.392;8.008;2022-11-03T03:53:35;7.13;;;4.70;;
3333;SDS011;1679;50.392;8.008;2022-11-03T03:56:01;5.33;;;4.50;;
3333;SDS011;1679;50.392;8.008;2022-11-03T03:58:29;9.10;;;4.97;;
3333;SDS011;1679;50.392;8.008;2022-11-03T04:00:55;9.10;;;5.20;;
3333;SDS011;1679;50.392;8.008;2022-11-03T04:03:21;8.43;;;5.07;;
3333;SDS011;1679;50.392;8.008;2022-11-03T04:05:50;9.23;;;4.83;;
3333;SDS011;1679;50.392;8.008;2022-11-03T04:08:17;5.40;;;4.83;;
3333;SDS011;1679;50.392;8.008;2022-11-03T04:10:43;10.10;;;7.00;;
3333;SDS011;1679;50.392;8.008;2022-11-03T04:13:29;8.50;;;4.83;;
3333;SDS011;1679;50.392;8.008;2022-11-03T04:16:15;11.30;;;5.60;;
3333;SDS011;1679;50.392;8.008;2022-11-03T04:18:59;6.50;;;5.77;;
3333;SDS011;1679;50.392;8.008;2022-11-03T04:21:44;7.07;;;5.20;;
3333;SDS011;1679;50.392;8.008;2022-11-03T04:24:28;8.00;;;4.60;;
3333;SDS011;1679;50.392;8.008;2022-11-03T04:26:56;12.93;;;5.90;;
3333;SDS011;1679;50.392;8.008;2022-11-03T04:29:26;8.77;;;5.03;;
3333;SDS011;1679;50.392;8.008;2022-11-03T04:31:52;8.60;;;5.40;;
3333;SDS011;1679;50.392;8.008;2022-11-03T04:34:17;5.97;;;4.30;;
3333;SDS011;1679;50.392;8.008;2022-11-03T04:36:43;6.67;;;4.50;;
3333;SDS011;1679;50.392;8.008;2022-11-03T04:39:14;6.47;;;3.97;;
3333;SDS011;1679;50.392;8.008;2022-11-03T04:41:42;6.90;;;4.50;;
3333;SDS011;1679;50.392;8.008;2022-11-03T04:44:10;5.57;;;3.80;;
3333;SDS011;1679;50.392;8.008;2022-11-03T04:46:39;7.40;;;4.03;;
3333;SDS011;1679;50.392;8.008;2022-11-03T04:49:06;5.33;;;4.23;;
3333;SDS011;1679;50.392;8.008;2022-11-03T04:51:36;7.10;;;4.20;;
3333;SDS011;1679;50.392;8.008;2022-11-03T04:54:03;11.33;;;3.87;;
3333;SDS011;1679;50.392;8.008;2022-11-03T04:56:39;6.20;;;3.60;;
3333;SDS011;1679;50.392;8.008;2022-11-03T04:59:07;4.47;;;3.90;;
3333;SDS011;1679;50.392;8.008;2022-11-03T05:01:35;9.80;;;4.07;;
3333;SDS011;1679;50.392;8.008;2022-11-03T05:04:00;6.23;;;4.43;;
3333;SDS011;1679;50.392;8.008;2022-11-03T05:06:26;11.20;;;5.37;;
3333;SDS011;1679;50.392;8.008;2022-11-03T05:09:00;6.50;;;4.10;;
3333;SDS011;1679;50.392;8.008;2022-11-03T05:11:30;4.27;;;3.87;;
3333;SDS011;1679;50.392;8.008;2022-11-03T05:14:00;9.87;;;4.57;;
3333;SDS011;1679;50.392;8.008;2022-11-03T05:16:28;5.90;;;5.10;;
3333;SDS011;1679;50.392;8.008;2022-11-03T05:18:55;7.40;;;4.90;;
3333;SDS011;1679;50.392;8.008;2022-11-03T05:21:21;9.37;;;5.30;;
3333;SDS011;1679;50.392;8.008;2022-11-03T05:23:50;6.47;;;5.07;;
3333;SDS011;1679;50.392;8.008;2022-11-03T05:26:25;6.57;;;5.03;;
3333;SDS011;1679;50.392;8.008;2022-11-03T05:31:59;6.93;;;4.83;;
3333;SDS011;1679;50.392;8.008;2022-11-03T05:34:36;7.27;;;3.83;;
3333;SDS011;1679;50.392;8.008;2022-11-03T05:39:50;8.57;;;4.80;;
3333;SDS011;1679;50.392;8.008;2022-11-03T05:45:21;13.77;;;6.70;;
3333;SDS011;1679;50.392;8.008;2022-11-03T05:47:55;9.50;;;5.50;;
3333;SDS011;1679;50.392;8.008;2022-11-03T05:50:32;6.07;;;4.40;;
3333;SDS011;1679;50.392;8.008;2022-11-03T05:55:47;10.07;;;5.03;;
3333;SDS011;1679;50.392;8.008;2022-11-03T05:58:34;5.90;;;4.80;;
3333;SDS011;1679;50.392;8.008;2022-11-03T06:01:00;7.30;;;4.40;;
3333;SDS011;1679;50.392;8.008;2022-11-03T06:03:29;12.03;;;4.70;;
3333;SDS011;1679;50.392;8.008;2022-11-03T06:05:59;14.77;;;7.10;;
3333;SDS011;1679;50.392;8.008;2022-11-03T06:08:30;11.17;;;6.50;;
3333;SDS011;1679;50.392;8.008;2022-11-03T06:10:59;20.20;;;9.40;;
3333;SDS011;1679;50.392;8.008;2022-11-03T06:13:31;16.27;;;6.60;;
3333;SDS011;1679;50.392;8.008;2022-11-03T06:16:10;12.63;;;5.93;;
3333;SDS011;1679;50.392;8.008;2022-11-03T06:18:59;13.30;;;8.10;;
3333;SDS011;1679;50.392;8.008;2022-11-03T06:21:29;23.90;;;11.20;;
3333;SDS011;1679;50.392;8.008;2022-11-03T06:23:56;20.97;;;12.27;;
3333;SDS011;1679;50.392;8.008;2022-11-03T06:26:24;31.03;;;16.80;;
3333;SDS011;1679;50.392;8.008;2022-11-03T06:28:51;26.47;;;14.70;;
3333;SDS011;1679;50.392;8.008;2022-11-03T06:33:52;17.50;;;7.80;;
3333;SDS011;1679;50.392;8.008;2022-11-03T06:36:21;12.50;;;6.90;;
3333;SDS011;1679;50.392;8.008;2022-11-03T06:38:53;21.93;;;10.60;;
3333;SDS011;1679;50.392;8.008;2022-11-03T06:41:25;19.87;;;13.70;;
3333;SDS011;1679;50.392;8.008;2022-11-03T06:43:53;26.40;;;13.50;;
3333;SDS011;1679;50.392;8.008;2022-11-03T06:46:23;26.50;;;14.40;;
3333;SDS011;1679;50.392;8.008;2022-11-03T06:48:51;16.60;;;11.03;;
3333;SDS011;1679;50.392;8.008;2022-11-03T06:51:23;22.67;;;12.00;;
3333;SDS011;1679;50.392;8.008;2022-11-03T06:53:52;20.37;;;12.00;;
3333;SDS011;1679;50.392;8.008;2022-11-03T06:56:23;21.33;;;12.20;;
3333;SDS011;1679;50.392;8.008;2022-11-03T06:58:52;21.37;;;11.93;;
3333;SDS011;1679;50.392;8.008;2022-11-03T07:01:20;16.00;;;11.20;;
3333;SDS011;1679;50.392;8.008;2022-11-03T07:03:48;17.90;;;11.73;;
3333;SDS011;1679;50.392;8.008;2022-11-03T07:06:20;20.40;;;10.20;;
3333;SDS011;1679;50.392;8.008;2022-11-03T07:08:54;19.20;;;11.70;;
3333;SDS011;1679;50.392;8.008;2022-11-03T07:11:26;22.03;;;10.73;;
3333;SDS011;1679;50.392;8.008;2022-11-03T07:13:57;14.07;;;9.83;;
3333;SDS011;1679;50.392;8.008;2022-11-03T07:16:27;15.10;;;9.03;;
3333;SDS011;1679;50.392;8.008;2022-11-03T07:19:01;14.77;;;8.57;;
3333;SDS011;1679;50.392;8.008;2022-11-03T07:21:40;14.27;;;7.00;;
3333;SDS011;1679;50.392;8.008;2022-11-03T07:24:28;13.67;;;7.80;;
3333;SDS011;1679;50.392;8.008;2022-11-03T07:29:48;13.90;;;7.03;;
3333;SDS011;1679;50.392;8.008;2022-11-03T07:32:18;10.23;;;7.40;;
3333;SDS011;1679;50.392;8.008;2022-11-03T07:34:50;17.60;;;7.50;;
3333;SDS011;1679;50.392;8.008;2022-11-03T07:37:28;16.10;;;8.83;;
3333;SDS011;1679;50.392;8.008;2022-11-03T07:39:53;11.33;;;7.50;;
3333;SDS011;1679;50.392;8.008;2022-11-03T07:42:20;11.67;;;6.93;;
3333;SDS011;1679;50.392;8.008;2022-11-03T07:44:47;13.90;;;7.30;;
3333;SDS011;1679;50.392;8.008;2022-11-03T07:47:17;11.10;;;7.40;;
3333;SDS011;1679;50.392;8.008;2022-11-03T07:49:44;16.20;;;7.33;;
3333;SDS011;1679;50.392;8.008;2022-11-03T07:52:11;13.90;;;7.23;;
3333;SDS011;1679;50.392;8.008;2022-11-03T07:54:44;14.43;;;7.77;;
3333;SDS011;1679;50.392;8.008;2022-11-03T07:57:23;18.03;;;8.50;;
3333;SDS011;1679;50.392;8.008;2022-11-03T08:00:03;19.47;;;8.67;;
3333;SDS011;1679;50.392;8.008;2022-11-03T08:02:41;15.03;;;8.23;;
3333;SDS011;1679;50.392;8.008;2022-11-03T08:05:21;12.63;;;7.40;;
3333;SDS011;1679;50.392;8.008;2022-11-03T08:07:47;16.77;;;7.90;;
3333;SDS011;1679;50.392;8.008;2022-11-03T08:10:13;14.10;;;7.73;;
3333;SDS011;1679;50.392;8.008;2022-11-03T08:12:38;18.77;;;10.37;;
3333;SDS011;1679;50.392;8.008;2022-11-03T08:15:04;16.10;;;8.10;;
3333;SDS011;1679;50.392;8.008;2022-11-03T08:17:30;13.53;;;8.63;;
3333;SDS011;1679;50.392;8.008;2022-11-03T08:19:56;15.20;;;10.00;;
3333;SDS011;1679;50.392;8.008;2022-11-03T08:22:21;20.53;;;9.30;;
3333;SDS011;1679;50.392;8.008;2022-11-03T08:24:49;14.20;;;9.20;;
3333;SDS011;1679;50.392;8.008;2022-11-03T08:27:15;15.33;;;9.77;;
3333;SDS011;1679;50.392;8.008;2022-11-03T08:29:41;13.67;;;10.10;;
3333;SDS011;1679;50.392;8.008;2022-11-03T08:32:06;20.50;;;9.20;;
3333;SDS011;1679;50.392;8.008;2022-11-03T08:34:32;21.70;;;16.47;;
3333;SDS011;1679;50.392;8.008;2022-11-03T08:36:57;15.30;;;9.10;;
3333;SDS011;1679;50.392;8.008;2022-11-03T08:39:23;20.43;;;13.60;;
3333;SDS011;1679;50.392;8.008;2022-11-03T08:41:49;16.70;;;9.83;;
3333;SDS011;1679;50.392;8.008;2022-11-03T08:44:15;15.63;;;8.70;;
3333;SDS011;1679;50.392;8.008;2022-11-03T08:46:41;24.93;;;12.50;;
3333;SDS011;1679;50.392;8.008;2022-11-03T08:49:07;15.27;;;10.63;;
3333;SDS011;1679;50.392;8.008;2022-11-03T08:51:33;17.53;;;10.37;;
3333;SDS011;1679;50.392;8.008;2022-11-03T08:53:59;19.40;;;11.43;;
3333;SDS011;1679;50.392;8.008;2022-11-03T08:56:26;13.83;;;9.80;;
3333;SDS011;1679;50.392;8.008;2022-11-03T08:58:51;16.80;;;8.80;;
3333;SDS011;1679;50.392;8.008;2022-11-03T09:01:18;11.00;;;8.20;;
3333;SDS011;1679;50.392;8.008;2022-11-03T09:03:43;19.10;;;8.97;;
3333;SDS011;1679;50.392;8.008;2022-11-03T09:06:10;15.17;;;7.63;;
3333;SDS011;1679;50.392;8.008;2022-11-03T09:08:36;16.03;;;8.77;;
3333;SDS011;1679;50.392;8.008;2022-11-03T09:11:03;12.77;;;8.13;;
3333;SDS011;1679;50.392;8.008;2022-11-03T09:13:29;16.47;;;8.90;;
3333;SDS011;1679;50.392;8.008;2022-11-03T09:15:54;15.17;;;9.87;;
3333;SDS011;1679;50.392;8.008;2022-11-03T09:18:20;16.43;;;10.40;;
3333;SDS011;1679;50.392;8.008;2022-11-03T09:20:47;14.60;;;10.97;;
3333;SDS011;1679;50.392;8.008;2022-11-03T09:23:12;17.07;;;10.97;;
3333;SDS011;1679;50.392;8.008;2022-11-03T09:25:39;23.93;;;18.50;;
3333;SDS011;1679;50.392;8.008;2022-11-03T09:28:06;21.27;;;12.40;;
3333;SDS011;1679;50.392;8.008;2022-11-03T09:30:32;18.03;;;11.90;;
3333;SDS011;1679;50.392;8.008;2022-11-03T09:32:59;24.47;;;19.83;;
3333;SDS011;1679;50.392;8.008;2022-11-03T09:35:24;26.27;;;14.47;;
3333;SDS011;1679;50.392;8.008;2022-11-03T09:37:50;23.03;;;13.77;;
3333;SDS011;1679;50.392;8.008;2022-11-03T09:40:15;16.83;;;13.13;;
3333;SDS011;1679;50.392;8.008;2022-11-03T09:42:41;25.97;;;16.30;;
3333;SDS011;1679;50.392;8.008;2022-11-03T09:45:08;18.87;;;13.30;;
3333;SDS011;1679;50.392;8.008;2022-11-03T09:47:38;18.30;;;12.87;;
3333;SDS011;1679;50.392;8.008;2022-11-03T09:50:05;20.30;;;13.87;;
3333;SDS011;1679;50.392;8.008;2022-11-03T09:52:37;18.93;;;12.77;;
3333;SDS011;1679;50.392;8.008;2022-11-03T09:55:07;20.70;;;12.87;;
3333;SDS011;1679;50.392;8.008;2022-11-03T09:57:41;26.73;;;13.83;;
3333;SDS011;1679;50.392;8.008;2022-11-03T10:00:17;17.90;;;12.63;;
3333;SDS011;1679;50.392;8.008;2022-11-03T10:02:44;18.20;;;12.10;;
3333;SDS011;1679;50.392;8.008;2022-11-03T10:05:12;20.53;;;10.97;;
3333;SDS011;1679;50.392;8.008;2022-11-03T10:07:43;16.53;;;11.30;;
3333;SDS011;1679;50.392;8.008;2022-11-03T10:10:13;17.37;;;10.80;;
3333;SDS011;1679;50.392;8.008;2022-11-03T10:12:43;15.53;;;11.43;;
3333;SDS011;1679;50.392;8.008;2022-11-03T10:15:13;12.77;;;10.83;;
3333;SDS011;1679;50.392;8.008;2022-11-03T10:17:43;17.40;;;12.70;;
3333;SDS011;1679;50.392;8.008;2022-11-03T10:20:12;12.70;;;10.70;;
3333;SDS011;1679;50.392;8.008;2022-11-03T10:22:39;15.20;;;10.80;;
3333;SDS011;1679;50.392;8.008;2022-11-03T10:30:45;18.97;;;14.03;;
3333;SDS011;1679;50.392;8.008;2022-11-03T10:33:35;17.60;;;10.00;;
3333;SDS011;1679;50.392;8.008;2022-11-03T10:38:42;17.03;;;8.77;;
3333;SDS011;1679;50.392;8.008;2022-11-03T10:41:12;12.43;;;8.90;;
3333;SDS011;1679;50.392;8.008;2022-11-03T10:43:41;14.00;;;12.20;;
3333;SDS011;1679;50.392;8.008;2022-11-03T10:48:43;18.63;;;8.83;;
3333;SDS011;1679;50.392;8.008;2022-11-03T10:51:33;14.30;;;9.40;;
3333;SDS011;1679;50.392;8.008;2022-11-03T10:54:00;13.13;;;9.80;;
3333;SDS011;1679;50.392;8.008;2022-11-03T10:56:30;22.93;;;10.47;;
3333;SDS011;1679;50.392;8.008;2022-11-03T10:58:57;16.30;;;9.17;;
3333;SDS011;1679;50.392;8.008;2022-11-03T11:01:24;7.37;;;6.67;;
3333;SDS011;1679;50.392;8.008;2022-11-03T11:03:50;11.57;;;6.60;;
3333;SDS011;1679;50.392;8.008;2022-11-03T11:06:26;10.20;;;7.10;;
3333;SDS011;1679;50.392;8.008;2022-11-03T11:08:53;11.70;;;6.73;;
3333;SDS011;1679;50.392;8.008;2022-11-03T11:11:24;9.27;;;6.07;;
3333;SDS011;1679;50.392;8.008;2022-11-03T11:16:57;12.90;;;6.53;;
3333;SDS011;1679;50.392;8.008;2022-11-03T11:19:24;10.53;;;6.90;;
3333;SDS011;1679;50.392;8.008;2022-11-03T11:30:00;7.53;;;5.63;;
3333;SDS011;1679;50.392;8.008;2022-11-03T11:37:55;10.90;;;5.93;;
3333;SDS011;1679;50.392;8.008;2022-11-03T11:48:38;13.37;;;5.97;;
3333;SDS011;1679;50.392;8.008;2022-11-03T11:51:07;8.57;;;5.33;;
3333;SDS011;1679;50.392;8.008;2022-11-03T11:53:38;7.50;;;5.33;;
3333;SDS011;1679;50.392;8.008;2022-11-03T11:56:08;9.70;;;6.07;;
3333;SDS011;1679;50.392;8.008;2022-11-03T11:58:50;7.83;;;5.43;;
3333;SDS011;1679;50.392;8.008;2022-11-03T12:01:26;8.07;;;5.70;;
3333;SDS011;1679;50.392;8.008;2022-11-03T12:04:03;9.03;;;5.93;;
3333;SDS011;1679;50.392;8.008;2022-11-03T12:06:34;6.23;;;5.50;;
3333;SDS011;1679;50.392;8.008;2022-11-03T12:09:05;7.60;;;4.90;;
3333;SDS011;1679;50.392;8.008;2022-11-03T12:17:30;7.40;;;4.07;;
3333;SDS011;1679;50.392;8.008;2022-11-03T12:19:45;6.67;;;5.17;;
3333;SDS011;1679;50.392;8.008;2022-11-03T12:24:56;8.07;;;4.40;;
3333;SDS011;1679;50.392;8.008;2022-11-03T12:29:58;6.50;;;5.33;;
3333;SDS011;1679;50.392;8.008;2022-11-03T12:32:26;12.20;;;5.33;;
3333;SDS011;1679;50.392;8.008;2022-11-03T12:34:51;7.10;;;5.30;;
3333;SDS011;1679;50.392;8.008;2022-11-03T12:37:19;5.97;;;4.50;;
3333;SDS011;1679;50.392;8.008;2022-11-03T12:39:45;7.80;;;4.43;;
3333;SDS011;1679;50.392;8.008;2022-11-03T12:42:11;8.73;;;4.53;;
3333;SDS011;1679;50.392;8.008;2022-11-03T12:44:38;7.70;;;5.30;;
3333;SDS011;1679;50.392;8.008;2022-11-03T12:47:04;9.63;;;5.47;;
3333;SDS011;1679;50.392;8.008;2022-11-03T12:49:29;10.40;;;7.30;;
3333;SDS011;1679;50.392;8.008;2022-11-03T12:51:55;9.93;;;5.90;;
3333;SDS011;1679;50.392;8.008;2022-11-03T12:54:23;11.00;;;5.70;;
3333;SDS011;1679;50.392;8.008;2022-11-03T12:56:50;7.60;;;4.73;;
3333;SDS011;1679;50.392;8.008;2022-11-03T12:59:17;16.00;;;5.90;;
3333;SDS011;1679;50.392;8.008;2022-11-03T13:01:42;7.60;;;4.43;;
3333;SDS011;1679;50.392;8.008;2022-11-03T13:04:08;8.63;;;5.60;;
3333;SDS011;1679;50.392;8.008;2022-11-03T13:06:34;7.60;;;5.37;;
3333;SDS011;1679;50.392;8.008;2022-11-03T13:09:00;11.37;;;5.67;;
3333;SDS011;1679;50.392;8.008;2022-11-03T13:11:26;9.33;;;6.20;;
3333;SDS011;1679;50.392;8.008;2022-11-03T13:14:11;11.17;;;5.47;;
3333;SDS011;1679;50.392;8.008;2022-11-03T13:16:37;17.13;;;6.00;;
3333;SDS011;1679;50.392;8.008;2022-11-03T13:19:04;10.13;;;5.47;;
3333;SDS011;1679;50.392;8.008;2022-11-03T13:21:29;8.83;;;5.20;;
3333;SDS011;1679;50.392;8.008;2022-11-03T13:23:55;11.73;;;5.20;;
3333;SDS011;1679;50.392;8.008;2022-11-03T13:26:20;5.87;;;5.27;;
3333;SDS011;1679;50.392;8.008;2022-11-03T13:28:46;8.43;;;6.10;;
3333;SDS011;1679;50.392;8.008;2022-11-03T13:31:13;5.83;;;4.80;;
3333;SDS011;1679;50.392;8.008;2022-11-03T13:33:38;11.60;;;5.27;;
3333;SDS011;1679;50.392;8.008;2022-11-03T13:36:04;11.47;;;5.10;;
3333;SDS011;1679;50.392;8.008;2022-11-03T13:38:30;12.27;;;6.23;;
3333;SDS011;1679;50.392;8.008;2022-11-03T13:40:55;9.97;;;5.83;;
3333;SDS011;1679;50.392;8.008;2022-11-03T13:43:21;9.10;;;5.40;;
3333;SDS011;1679;50.392;8.008;2022-11-03T13:45:46;12.20;;;5.57;;
3333;SDS011;1679;50.392;8.008;2022-11-03T13:48:12;11.87;;;6.00;;
3333;SDS011;1679;50.392;8.008;2022-11-03T13:50:37;10.53;;;5.73;;
3333;SDS011;1679;50.392;8.008;2022-11-03T13:53:04;9.67;;;5.30;;
3333;SDS011;1679;50.392;8.008;2022-11-03T13:55:30;10.03;;;5.83;;
3333;SDS011;1679;50.392;8.008;2022-11-03T13:57:55;9.30;;;5.60;;
3333;SDS011;1679;50.392;8.008;2022-11-03T14:00:21;8.23;;;5.90;;
3333;SDS011;1679;50.392;8.008;2022-11-03T14:02:48;8.80;;;5.53;;
3333;SDS011;1679;50.392;8.008;2022-11-03T14:05:15;15.40;;;5.57;;
3333;SDS011;1679;50.392;8.008;2022-11-03T14:07:42;9.60;;;6.10;;
3333;SDS011;1679;50.392;8.008;2022-11-03T14:10:09;9.70;;;5.57;;
3333;SDS011;1679;50.392;8.008;2022-11-03T14:12:35;9.13;;;6.53;;
3333;SDS011;1679;50.392;8.008;2022-11-03T14:15:02;14.43;;;6.60;;
3333;SDS011;1679;50.392;8.008;2022-11-03T14:17:30;7.83;;;5.60;;
3333;SDS011;1679;50.392;8.008;2022-11-03T14:19:56;9.03;;;6.00;;
3333;SDS011;1679;50.392;8.008;2022-11-03T14:22:23;7.40;;;6.03;;
3333;SDS011;1679;50.392;8.008;2022-11-03T14:24:49;8.20;;;5.80;;
3333;SDS011;1679;50.392;8.008;2022-11-03T14:27:16;8.20;;;6.40;;
3333;SDS011;1679;50.392;8.008;2022-11-03T14:29:42;13.87;;;6.30;;
3333;SDS011;1679;50.392;8.008;2022-11-03T14:32:09;13.57;;;7.90;;
3333;SDS011;1679;50.392;8.008;2022-11-03T14:34:34;15.73;;;9.13;;
3333;SDS011;1679;50.392;8.008;2022-11-03T14:37:00;13.43;;;7.53;;
3333;SDS011;1679;50.392;8.008;2022-11-03T14:39:29;12.60;;;8.00;;
3333;SDS011;1679;50.392;8.008;2022-11-03T14:41:54;12.33;;;8.97;;
3333;SDS011;1679;50.392;8.008;2022-11-03T14:44:30;10.23;;;6.30;;
3333;SDS011;1679;50.392;8.008;2022-11-03T14:46:59;7.70;;;6.17;;
3333;SDS011;1679;50.392;8.008;2022-11-03T14:49:29;13.03;;;6.97;;
3333;SDS011;1679;50.392;8.008;2022-11-03T14:51:56;8.80;;;5.73;;
3333;SDS011;1679;50.392;8.008;2022-11-03T14:54:22;11.33;;;6.20;;
3333;SDS011;1679;50.392;8.008;2022-11-03T14:56:48;9.40;;;5.67;;
3333;SDS011;1679;50.392;8.008;2022-11-03T14:59:14;7.93;;;5.50;;
3333;SDS011;1679;50.392;8.008;2022-11-03T15:01:40;8.47;;;5.90;;
3333;SDS011;1679;50.392;8.008;2022-11-03T15:04:05;12.90;;;6.43;;
3333;SDS011;1679;50.392;8.008;2022-11-03T15:06:32;10.37;;;6.00;;
3333;SDS011;1679;50.392;8.008;2022-11-03T15:09:00;11.37;;;6.20;;
3333;SDS011;1679;50.392;8.008;2022-11-03T15:11:26;9.73;;;6.10;;
3333;SDS011;1679;50.392;8.008;2022-11-03T15:13:52;9.00;;;5.93;;
3333;SDS011;1679;50.392;8.008;2022-11-03T15:16:21;12.40;;;6.90;;
3333;SDS011;1679;50.392;8.008;2022-11-03T15:18:52;8.40;;;6.70;;
3333;SDS011;1679;50.392;8.008;2022-11-03T15:21:17;12.70;;;8.00;;
3333;SDS011;1679;50.392;8.008;2022-11-03T15:23:43;9.20;;;6.50;;
3333;SDS011;1679;50.392;8.008;2022-11-03T15:26:10;11.20;;;7.07;;
3333;SDS011;1679;50.392;8.008;2022-11-03T15:28:37;10.40;;;7.20;;
3333;SDS011;1679;50.392;8.008;2022-11-03T15:31:03;10.53;;;7.57;;
3333;SDS011;1679;50.392;8.008;2022-11-03T15:33:29;9.20;;;7.23;;
3333;SDS011;1679;50.392;8.008;2022-11-03T15:35:56;14.70;;;7.80;;
3333;SDS011;1679;50.392;8.008;2022-11-03T15:38:23;13.30;;;7.80;;
3333;SDS011;1679;50.392;8.008;2022-11-03T15:40:48;12.23;;;7.50;;
3333;SDS011;1679;50.392;8.008;2022-11-03T15:43:14;10.97;;;7.43;;
3333;SDS011;1679;50.392;8.008;2022-11-03T15:45:39;12.57;;;9.10;;
3333;SDS011;1679;50.392;8.008;2022-11-03T15:48:05;14.20;;;9.33;;
3333;SDS011;1679;50.392;8.008;2022-11-03T15:50:31;15.60;;;10.53;;
3333;SDS011;1679;50.392;8.008;2022-11-03T15:52:56;11.90;;;8.73;;
3333;SDS011;1679;50.392;8.008;2022-11-03T15:55:22;12.90;;;9.10;;
3333;SDS011;1679;50.392;8.008;2022-11-03T15:57:48;13.20;;;9.30;;
3333;SDS011;1679;50.392;8.008;2022-11-03T16:00:14;17.50;;;11.67;;
3333;SDS011;1679;50.392;8.008;2022-11-03T16:02:40;11.27;;;9.20;;
3333;SDS011;1679;50.392;8.008;2022-11-03T16:05:06;13.50;;;10.20;;
3333;SDS011;1679;50.392;8.008;2022-11-03T16:07:32;11.20;;;9.90;;
3333;SDS011;1679;50.392;8.008;2022-11-03T16:09:59;18.20;;;12.40;;
3333;SDS011;1679;50.392;8.008;2022-11-03T16:12:24;19.37;;;13.57;;
3333;SDS011;1679;50.392;8.008;2022-11-03T16:14:51;22.10;;;13.90;;
3333;SDS011;1679;50.392;8.008;2022-11-03T16:17:17;18.50;;;12.40;;
3333;SDS011;1679;50.392;8.008;2022-11-03T16:19:43;16.03;;;11.97;;
3333;SDS011;1679;50.392;8.008;2022-11-03T16:22:09;14.00;;;12.00;;
3333;SDS011;1679;50.392;8.008;2022-11-03T16:24:35;21.50;;;15.80;;
3333;SDS011;1679;50.392;8.008;2022-11-03T16:27:02;18.37;;;12.37;;
3333;SDS011;1679;50.392;8.008;2022-11-03T16:29:28;18.20;;;13.83;;
3333;SDS011;1679;50.392;8.008;2022-11-03T16:31:53;16.90;;;11.03;;
3333;SDS011;1679;50.392;8.008;2022-11-03T16:34:19;17.73;;;11.03;;
3333;SDS011;1679;50.392;8.008;2022-11-03T16:36:44;17.27;;;12.50;;
3333;SDS011;1679;50.392;8.008;2022-11-03T16:39:11;20.20;;;10.83;;
3333;SDS011;1679;50.392;8.008;2022-11-03T16:41:37;15.30;;;11.20;;
3333;SDS011;1679;50.392;8.008;2022-11-03T16:44:02;12.67;;;9.30;;